Time;durP1;ratioP1;P1;durP2;ratioP2;P2;SDS_P1;SDS_P2;PMS_P1;PMS_P2;Temp;Humidity;BMP_temperature;BMP_pressure;BME280_temperature;BME280_humidity;BME280_pressure;Samples;Min_cycle;Max_cycle;Signal;HPM_P1;HPM_P2
2023/01/08 00:01:21;;;;;;;6.22;2.20;;;;;;;;;;5011801;28;20025;-76
2023/01/08 00:03:46;;;;;;;9.77;3.28;;;;;;;;;;4993855;28;20484;-76
2023/01/08 00:06:12;;;;;;;4.85;2.38;;;;;;;;;;5010788;28;20477;-77
2023/01/08 00:08:37;;;;;;;8.50;2.85;;;;;;;;;;5011298;28;20466;-76
2023/01/08 00:11:03;;;;;;;7.10;2.67;;;;;;;;;;4993949;28;20022;-76
2023/01/08 00:13:28;;;;;;;7.80;2.83;;;;;;;;;;4993720;28;20216;-76
2023/01/08 00:15:53;;;;;;;19.50;5.35;;;;;;;;;;5011912;28;20022;-76
2023/01/08 00:18:18;;;;;;;17.05;4.75;;;;;;;;;;5011425;28;20030;-76
2023/01/08 00:20:44;;;;;;;17.52;4.30;;;;;;;;;;5011898;28;20467;-76
2023/01/08 00:23:10;;;;;;;11.57;3.90;;;;;;;;;;5011223;28;20030;-76
2023/01/08 00:25:36;;;;;;;13.73;3.88;;;;;;;;;;5009827;28;20030;-76
2023/01/08 00:28:01;;;;;;;9.52;3.25;;;;;;;;;;4993989;28;20033;-77
2023/01/08 00:30:26;;;;;;;16.63;5.25;;;;;;;;;;5011365;28;20057;-77
2023/01/08 00:32:51;;;;;;;12.27;4.07;;;;;;;;;;5011631;28;20040;-77
2023/01/08 00:35:17;;;;;;;8.80;3.67;;;;;;;;;;4993541;28;20029;-77
2023/01/08 00:37:42;;;;;;;12.95;3.20;;;;;;;;;;4993960;28;20030;-77
2023/01/08 00:40:07;;;;;;;6.85;2.90;;;;;;;;;;4994085;28;20100;-76
2023/01/08 00:42:32;;;;;;;11.95;3.40;;;;;;;;;;4993409;28;20503;-77
2023/01/08 00:44:58;;;;;;;8.98;2.95;;;;;;;;;;5003472;28;20010;-77
2023/01/08 00:47:23;;;;;;;6.60;2.80;;;;;;;;;;5005983;28;20022;-77
2023/01/08 00:49:48;;;;;;;6.90;2.80;;;;;;;;;;4993512;28;20389;-76
2023/01/08 00:52:13;;;;;;;9.88;2.83;;;;;;;;;;5015171;28;20443;-76
2023/01/08 00:54:38;;;;;;;3.65;2.20;;;;;;;;;;4997226;28;20064;-76
2023/01/08 00:57:03;;;;;;;4.15;2.20;;;;;;;;;;5015226;28;20025;-76
2023/01/08 00:59:29;;;;;;;5.95;1.92;;;;;;;;;;5014594;28;20465;-76
2023/01/08 01:01:54;;;;;;;3.70;1.98;;;;;;;;;;4996227;28;20018;-77
2023/01/08 01:04:19;;;;;;;8.65;2.70;;;;;;;;;;5014518;28;20075;-76
2023/01/08 01:06:44;;;;;;;6.13;2.10;;;;;;;;;;4997431;28;20061;-76
2023/01/08 01:09:10;;;;;;;7.50;2.95;;;;;;;;;;5014609;28;20030;-76
2023/01/08 01:11:35;;;;;;;3.50;2.10;;;;;;;;;;5014988;28;20077;-76
2023/01/08 01:14:00;;;;;;;3.58;0.88;;;;;;;;;;5014529;28;20457;-77
2023/01/08 01:16:26;;;;;;;4.40;0.88;;;;;;;;;;4997162;28;20029;-77
2023/01/08 01:18:52;;;;;;;4.28;0.70;;;;;;;;;;5012865;28;20116;-76
2023/01/08 01:21:20;;;;;;;5.53;0.77;;;;;;;;;;4995781;28;20030;-76
2023/01/08 01:23:45;;;;;;;1.88;0.60;;;;;;;;;;4995516;28;20088;-77
2023/01/08 01:26:18;;;;;;;4.35;0.70;;;;;;;;;;5014481;28;20025;-76
2023/01/08 01:28:43;;;;;;;;;;;;;;;;;;5014320;28;20096;-76
2023/01/08 01:31:09;;;;;;;2.03;0.50;;;;;;;;;;5014553;28;19988;-76
2023/01/08 01:33:34;;;;;;;1.00;0.35;;;;;;;;;;4996457;28;20266;-76
2023/01/08 01:36:00;;;;;;;1.33;0.40;;;;;;;;;;5013405;28;20412;-76
2023/01/08 01:38:26;;;;;;;2.17;0.30;;;;;;;;;;4996443;28;20021;-77
2023/01/08 01:40:51;;;;;;;2.40;0.57;;;;;;;;;;4996699;28;20072;-76
2023/01/08 01:43:31;;;;;;;3.05;0.38;;;;;;;;;;4996523;28;20134;-76
2023/01/08 01:45:57;;;;;;;3.00;0.40;;;;;;;;;;5002239;28;20461;-77
2023/01/08 01:48:22;;;;;;;5.53;0.65;;;;;;;;;;5013855;28;20029;-76
2023/01/08 01:50:50;;;;;;;6.00;0.52;;;;;;;;;;4996255;28;20497;-76
2023/01/08 01:53:18;;;;;;;3.97;0.80;;;;;;;;;;5012765;28;20053;-76
2023/01/08 01:55:44;;;;;;;2.10;0.43;;;;;;;;;;4995990;28;20037;-76
2023/01/08 01:58:15;;;;;;;5.00;0.50;;;;;;;;;;5013883;28;20022;-76
2023/01/08 02:00:41;;;;;;;6.22;0.47;;;;;;;;;;4996225;28;20397;-76
2023/01/08 02:03:07;;;;;;;4.88;0.60;;;;;;;;;;4995856;28;20030;-76
2023/01/08 02:05:36;;;;;;;3.42;0.50;;;;;;;;;;5013634;28;20030;-76
2023/01/08 02:08:05;;;;;;;6.72;0.60;;;;;;;;;;5013589;28;20022;-76
2023/01/08 02:10:39;;;;;;;3.40;0.65;;;;;;;;;;4996129;28;20022;-76
2023/01/08 02:13:08;;;;;;;3.20;0.70;;;;;;;;;;5013369;28;20022;-76
2023/01/08 02:15:34;;;;;;;2.65;0.50;;;;;;;;;;5013675;28;20030;-76
2023/01/08 02:17:59;;;;;;;1.25;0.40;;;;;;;;;;4995977;28;20026;-76
2023/01/08 02:20:27;;;;;;;6.32;0.70;;;;;;;;;;5013317;28;20017;-76
2023/01/08 02:23:07;;;;;;;1.77;0.40;;;;;;;;;;4996054;28;20022;-76
2023/01/08 02:25:36;;;;;;;6.30;0.70;;;;;;;;;;4995692;28;20603;-76
2023/01/08 02:28:04;;;;;;;4.10;0.65;;;;;;;;;;4995810;28;20034;-77
2023/01/08 02:30:29;;;;;;;7.53;0.70;;;;;;;;;;4995562;28;20089;-76
2023/01/08 02:32:54;;;;;;;3.83;0.70;;;;;;;;;;5013487;28;20041;-77
2023/01/08 02:35:20;;;;;;;4.53;0.60;;;;;;;;;;5013242;28;20018;-76
2023/01/08 02:37:45;;;;;;;4.47;0.70;;;;;;;;;;5013344;28;20373;-76
2023/01/08 02:40:13;;;;;;;4.15;0.85;;;;;;;;;;5013274;28;20045;-76
2023/01/08 02:42:50;;;;;;;3.00;0.47;;;;;;;;;;4995152;28;20032;-77
2023/01/08 02:45:25;;;;;;;3.22;0.70;;;;;;;;;;5013006;28;20034;-77
2023/01/08 02:48:02;;;;;;;7.40;0.95;;;;;;;;;;5011229;28;20087;-76
2023/01/08 02:50:30;;;;;;;1.25;0.52;;;;;;;;;;4995400;28;20080;-76
2023/01/08 02:52:58;;;;;;;6.93;0.82;;;;;;;;;;5013074;28;20026;-77
2023/01/08 02:55:25;;;;;;;8.32;0.90;;;;;;;;;;5013011;28;20029;-76
2023/01/08 02:57:50;;;;;;;7.22;0.70;;;;;;;;;;5012721;28;20017;-76
2023/01/08 03:00:15;;;;;;;4.38;0.80;;;;;;;;;;5011738;28;20026;-76
2023/01/08 03:02:42;;;;;;;5.90;0.98;;;;;;;;;;4994855;28;20056;-77
2023/01/08 03:05:15;;;;;;;4.93;0.93;;;;;;;;;;4995094;28;20020;-76
2023/01/08 03:07:40;;;;;;;3.70;0.70;;;;;;;;;;5012462;28;20053;-76
2023/01/08 03:10:06;;;;;;;3.10;0.55;;;;;;;;;;5012601;28;20006;-76
2023/01/08 03:12:42;;;;;;;6.47;0.80;;;;;;;;;;4994828;28;20025;-76
2023/01/08 03:15:08;;;;;;;2.72;0.77;;;;;;;;;;4994882;28;20117;-77
2023/01/08 03:17:40;;;;;;;9.75;0.85;;;;;;;;;;5012871;28;20141;-76
2023/01/08 03:20:15;;;;;;;6.50;1.08;;;;;;;;;;5010671;28;20038;-76
2023/01/08 03:22:42;;;;;;;4.15;0.95;;;;;;;;;;5012558;28;20117;-76
2023/01/08 03:25:08;;;;;;;6.53;0.85;;;;;;;;;;5012188;28;20030;-76
2023/01/08 03:27:36;;;;;;;3.67;1.05;;;;;;;;;;4994882;28;20022;-76
2023/01/08 03:30:03;;;;;;;4.18;0.77;;;;;;;;;;4994605;28;20013;-77
2023/01/08 03:32:29;;;;;;;3.10;1.00;;;;;;;;;;4994422;28;20060;-76
2023/01/08 03:34:55;;;;;;;8.75;1.13;;;;;;;;;;5012160;28;20017;-76
2023/01/08 03:37:24;;;;;;;6.03;1.20;;;;;;;;;;4994057;28;20441;-76
2023/01/08 03:39:53;;;;;;;5.78;1.65;;;;;;;;;;5012293;28;20025;-76
2023/01/08 03:42:19;;;;;;;7.90;1.70;;;;;;;;;;4994483;28;20018;-76
2023/01/08 03:44:44;;;;;;;6.53;1.20;;;;;;;;;;5009019;28;20376;-76
2023/01/08 03:47:10;;;;;;;5.88;1.02;;;;;;;;;;5011734;28;20097;-77
2023/01/08 03:49:36;;;;;;;3.47;0.88;;;;;;;;;;5012161;28;20026;-76
2023/01/08 03:52:01;;;;;;;2.63;0.70;;;;;;;;;;5011395;28;20022;-76
2023/01/08 03:54:31;;;;;;;2.78;0.88;;;;;;;;;;5011970;28;20529;-77
2023/01/08 03:56:56;;;;;;;2.83;0.70;;;;;;;;;;4994110;28;20014;-76
2023/01/08 03:59:22;;;;;;;3.92;0.90;;;;;;;;;;4992227;28;20020;-76
2023/01/08 04:01:47;;;;;;;2.45;1.05;;;;;;;;;;4993736;28;20381;-76
2023/01/08 04:04:12;;;;;;;1.45;0.63;;;;;;;;;;5011411;28;20054;-77
2023/01/08 04:06:37;;;;;;;5.05;0.90;;;;;;;;;;4993949;28;20018;-76
2023/01/08 04:09:03;;;;;;;3.85;0.90;;;;;;;;;;4993226;28;20116;-77
2023/01/08 04:11:28;;;;;;;4.20;0.80;;;;;;;;;;5011009;28;20116;-76
2023/01/08 04:13:53;;;;;;;5.15;0.75;;;;;;;;;;4993984;28;20036;-76
2023/01/08 04:16:18;;;;;;;1.90;1.00;;;;;;;;;;4993816;28;20037;-76
2023/01/08 04:18:43;;;;;;;2.50;0.60;;;;;;;;;;4993758;28;20179;-76
2023/01/08 04:21:09;;;;;;;2.58;0.70;;;;;;;;;;5011748;28;20101;-76
2023/01/08 04:23:34;;;;;;;2.45;0.77;;;;;;;;;;5011635;28;20025;-76
2023/01/08 04:26:02;;;;;;;2.25;0.77;;;;;;;;;;4995749;28;20032;-76
2023/01/08 04:28:27;;;;;;;5.22;0.90;;;;;;;;;;4997142;28;20036;-76
2023/01/08 04:30:53;;;;;;;2.25;0.80;;;;;;;;;;5015600;28;20200;-76
2023/01/08 04:33:18;;;;;;;3.85;0.70;;;;;;;;;;4997755;28;20018;-76
2023/01/08 04:35:43;;;;;;;2.92;0.80;;;;;;;;;;5015154;28;20014;-76
2023/01/08 04:38:08;;;;;;;5.22;0.80;;;;;;;;;;5013516;28;20033;-76
2023/01/08 04:40:33;;;;;;;3.05;0.70;;;;;;;;;;5014092;28;20053;-77
2023/01/08 04:42:59;;;;;;;5.45;1.05;;;;;;;;;;4996325;28;20057;-76
2023/01/08 04:45:24;;;;;;;2.47;0.40;;;;;;;;;;4989413;28;20036;-76
2023/01/08 04:47:56;;;;;;;4.60;0.77;;;;;;;;;;5013927;28;20197;-77
2023/01/08 04:50:21;;;;;;;3.50;0.85;;;;;;;;;;5013340;28;20032;-77
2023/01/08 04:52:47;;;;;;;3.50;0.50;;;;;;;;;;5013995;28;20033;-76
2023/01/08 04:55:12;;;;;;;7.50;0.65;;;;;;;;;;4996167;28;20574;-76
2023/01/08 04:57:37;;;;;;;1.70;0.40;;;;;;;;;;5013824;28;20022;-77
2023/01/08 05:00:03;;;;;;;2.55;0.45;;;;;;;;;;5013808;28;20030;-76
2023/01/08 05:02:28;;;;;;;3.17;0.50;;;;;;;;;;5013760;28;20026;-76
2023/01/08 05:04:53;;;;;;;1.58;0.50;;;;;;;;;;4995274;28;20353;-76
2023/01/08 05:07:19;;;;;;;5.63;0.47;;;;;;;;;;5013468;28;20022;-76
2023/01/08 05:09:44;;;;;;;5.00;0.40;;;;;;;;;;4996025;28;20025;-76
2023/01/08 05:12:09;;;;;;;7.60;0.50;;;;;;;;;;5013647;28;20527;-76
2023/01/08 05:14:34;;;;;;;3.92;0.50;;;;;;;;;;5013695;28;20046;-76
2023/01/08 05:16:59;;;;;;;6.90;0.57;;;;;;;;;;5013713;28;20242;-77
2023/01/08 05:19:25;;;;;;;7.50;1.20;;;;;;;;;;5013430;28;20117;-76
2023/01/08 05:21:50;;;;;;;6.70;0.52;;;;;;;;;;5012699;28;20109;-76
2023/01/08 05:24:15;;;;;;;4.70;0.70;;;;;;;;;;5013427;28;20026;-76
2023/01/08 05:26:40;;;;;;;4.53;0.50;;;;;;;;;;4995704;28;20040;-77
2023/01/08 05:29:05;;;;;;;2.65;0.65;;;;;;;;;;5013127;28;20461;-76
2023/01/08 05:31:30;;;;;;;2.75;0.52;;;;;;;;;;5013597;28;20018;-76
2023/01/08 05:33:57;;;;;;;6.40;0.75;;;;;;;;;;5013374;28;20433;-77
2023/01/08 05:36:22;;;;;;;6.72;0.65;;;;;;;;;;4958142;28;1082381;-76
2023/01/08 05:38:47;;;;;;;5.35;0.80;;;;;;;;;;5014059;28;20064;-77
2023/01/08 05:41:12;;;;;;;3.03;0.68;;;;;;;;;;4996191;28;20103;-76
2023/01/08 05:43:37;;;;;;;3.97;0.52;;;;;;;;;;5014008;28;20018;-77
2023/01/08 05:46:03;;;;;;;4.13;0.52;;;;;;;;;;5014044;28;20026;-76
2023/01/08 05:48:29;;;;;;;6.53;0.95;;;;;;;;;;5013972;28;20052;-76
2023/01/08 05:50:54;;;;;;;6.60;1.00;;;;;;;;;;5014104;28;20026;-76
2023/01/08 05:53:19;;;;;;;6.25;0.90;;;;;;;;;;5013738;28;20025;-77
2023/01/08 05:55:45;;;;;;;13.52;1.45;;;;;;;;;;5014411;28;20394;-77
2023/01/08 05:58:10;;;;;;;6.72;1.10;;;;;;;;;;4995445;28;20030;-77
2023/01/08 06:00:36;;;;;;;7.57;0.90;;;;;;;;;;4996430;28;20022;-76
2023/01/08 06:03:01;;;;;;;6.00;0.52;;;;;;;;;;4996227;28;20038;-77
2023/01/08 06:05:27;;;;;;;3.33;0.70;;;;;;;;;;4995940;28;20110;-77
2023/01/08 06:07:52;;;;;;;3.97;0.70;;;;;;;;;;5013830;28;20029;-76
2023/01/08 06:10:17;;;;;;;5.25;0.70;;;;;;;;;;5013477;28;20014;-77
2023/01/08 06:12:45;;;;;;;5.03;0.60;;;;;;;;;;5013882;28;20500;-76
2023/01/08 06:15:11;;;;;;;6.65;0.60;;;;;;;;;;4995832;28;20037;-77
2023/01/08 06:17:36;;;;;;;6.13;0.70;;;;;;;;;;5012710;28;20018;-77
2023/01/08 06:20:02;;;;;;;3.22;0.60;;;;;;;;;;5013569;28;20026;-77
2023/01/08 06:22:27;;;;;;;6.60;0.47;;;;;;;;;;5013378;28;20030;-76
2023/01/08 06:24:52;;;;;;;1.90;0.40;;;;;;;;;;5013150;28;20037;-77
2023/01/08 06:27:17;;;;;;;6.70;0.50;;;;;;;;;;5013358;28;20033;-76
2023/01/08 06:29:43;;;;;;;4.63;0.70;;;;;;;;;;5013110;28;20065;-77
2023/01/08 06:32:08;;;;;;;3.42;0.50;;;;;;;;;;4995564;28;20428;-76
2023/01/08 06:34:33;;;;;;;4.95;0.80;;;;;;;;;;5012304;28;20066;-76
2023/01/08 06:36:58;;;;;;;1.63;0.32;;;;;;;;;;5012766;28;20064;-77
2023/01/08 06:39:23;;;;;;;5.90;0.50;;;;;;;;;;5012982;28;20493;-76
2023/01/08 06:41:49;;;;;;;5.43;0.45;;;;;;;;;;5013554;28;20047;-76
2023/01/08 06:44:14;;;;;;;6.97;0.60;;;;;;;;;;5012964;28;20026;-76
2023/01/08 06:46:39;;;;;;;3.42;0.45;;;;;;;;;;5011663;28;20640;-77
2023/01/08 06:49:05;;;;;;;2.97;0.60;;;;;;;;;;5012097;28;20014;-77
2023/01/08 06:51:30;;;;;;;2.53;0.63;;;;;;;;;;5008686;28;20022;-76
2023/01/08 06:53:55;;;;;;;4.95;0.65;;;;;;;;;;5011939;28;20113;-77
2023/01/08 06:56:20;;;;;;;5.32;0.60;;;;;;;;;;5009521;28;20030;-77
2023/01/08 06:58:46;;;;;;;8.52;0.55;;;;;;;;;;5005479;28;20444;-77
2023/01/08 07:01:13;;;;;;;4.63;0.70;;;;;;;;;;5006901;28;20464;-76
2023/01/08 07:03:38;;;;;;;12.90;1.75;;;;;;;;;;5012362;28;20096;-76
2023/01/08 07:06:03;;;;;;;8.10;0.90;;;;;;;;;;4993398;28;20030;-77
2023/01/08 07:08:28;;;;;;;7.15;1.08;;;;;;;;;;5009342;28;20057;-77
2023/01/08 07:10:54;;;;;;;11.52;1.55;;;;;;;;;;5011750;28;20022;-77
2023/01/08 07:13:21;;;;;;;5.25;0.68;;;;;;;;;;5012506;28;20029;-76
2023/01/08 07:15:46;;;;;;;2.70;0.80;;;;;;;;;;4995096;28;20021;-76
2023/01/08 07:18:12;;;;;;;4.30;0.60;;;;;;;;;;5012376;28;20025;-76
2023/01/08 07:20:37;;;;;;;5.32;0.65;;;;;;;;;;4994750;28;20052;-76
2023/01/08 07:23:04;;;;;;;7.40;0.88;;;;;;;;;;5011463;28;20029;-76
2023/01/08 07:25:29;;;;;;;5.28;0.45;;;;;;;;;;4994530;28;20117;-76
2023/01/08 07:27:54;;;;;;;4.13;0.63;;;;;;;;;;5011065;28;20421;-77
2023/01/08 07:30:20;;;;;;;10.68;1.48;;;;;;;;;;5012213;28;20093;-78
2023/01/08 07:32:45;;;;;;;7.55;1.00;;;;;;;;;;5009944;28;20088;-77
2023/01/08 07:35:10;;;;;;;6.68;0.90;;;;;;;;;;5010112;28;20374;-77
2023/01/08 07:37:38;;;;;;;10.75;1.08;;;;;;;;;;5009983;28;20064;-77
2023/01/08 07:40:04;;;;;;;5.30;0.63;;;;;;;;;;5011971;28;20025;-77
2023/01/08 07:42:29;;;;;;;10.00;1.00;;;;;;;;;;5011572;28;20393;-77
2023/01/08 07:44:54;;;;;;;7.22;0.95;;;;;;;;;;4998161;28;20028;-77
2023/01/08 07:47:19;;;;;;;9.07;1.17;;;;;;;;;;5011102;28;20072;-77
2023/01/08 07:49:44;;;;;;;10.70;1.50;;;;;;;;;;5010072;28;20050;-77
2023/01/08 07:52:09;;;;;;;9.48;1.05;;;;;;;;;;4994268;28;20022;-77
2023/01/08 07:54:35;;;;;;;4.85;0.55;;;;;;;;;;5009678;28;20449;-77
2023/01/08 07:57:00;;;;;;;5.35;1.23;;;;;;;;;;5008460;28;20072;-77
2023/01/08 07:59:25;;;;;;;10.30;1.40;;;;;;;;;;5011041;28;20449;-77
2023/01/08 08:01:50;;;;;;;9.43;1.30;;;;;;;;;;5010505;28;20025;-77
2023/01/08 08:04:15;;;;;;;9.65;0.75;;;;;;;;;;5008970;28;20117;-77
2023/01/08 08:06:41;;;;;;;3.40;0.70;;;;;;;;;;5008356;28;20030;-77
2023/01/08 08:09:06;;;;;;;8.88;0.82;;;;;;;;;;5010889;28;20112;-76
2023/01/08 08:11:31;;;;;;;5.25;0.70;;;;;;;;;;4993645;28;20091;-77
2023/01/08 08:13:56;;;;;;;9.55;1.23;;;;;;;;;;5007299;28;20025;-77
2023/01/08 08:16:21;;;;;;;10.15;1.25;;;;;;;;;;5011214;28;20420;-76
2023/01/08 08:18:47;;;;;;;10.38;1.33;;;;;;;;;;5010608;28;20091;-77
2023/01/08 08:21:12;;;;;;;11.23;1.33;;;;;;;;;;5008406;28;20083;-76
2023/01/08 08:23:37;;;;;;;7.00;1.17;;;;;;;;;;5002967;28;20026;-77
2023/01/08 08:26:03;;;;;;;5.40;1.15;;;;;;;;;;5007509;28;20026;-77
2023/01/08 08:28:28;;;;;;;5.43;1.00;;;;;;;;;;5009742;28;20153;-77
2023/01/08 08:30:53;;;;;;;5.50;0.80;;;;;;;;;;5007798;28;20025;-76
2023/01/08 08:33:19;;;;;;;5.63;1.27;;;;;;;;;;5011304;28;20540;-77
2023/01/08 08:35:48;;;;;;;9.88;1.08;;;;;;;;;;5009720;28;20014;-77
2023/01/08 08:38:14;;;;;;;6.55;1.17;;;;;;;;;;4996032;28;20413;-77
2023/01/08 08:40:40;;;;;;;3.95;0.88;;;;;;;;;;5009389;28;20033;-77
2023/01/08 08:43:05;;;;;;;10.75;1.02;;;;;;;;;;5011004;28;20131;-77
2023/01/08 08:45:31;;;;;;;8.02;1.17;;;;;;;;;;5011145;28;20061;-76
2023/01/08 08:47:56;;;;;;;7.50;0.90;;;;;;;;;;5010755;28;20018;-76
2023/01/08 08:50:21;;;;;;;11.75;1.20;;;;;;;;;;5009780;28;20018;-77
2023/01/08 08:52:47;;;;;;;3.33;0.70;;;;;;;;;;5009586;28;20068;-77
2023/01/08 08:55:15;;;;;;;5.28;0.85;;;;;;;;;;5009368;28;20026;-77
2023/01/08 08:57:40;;;;;;;4.10;0.60;;;;;;;;;;5010676;28;20026;-77
2023/01/08 09:00:06;;;;;;;8.80;1.13;;;;;;;;;;5011070;28;20064;-76
2023/01/08 09:02:32;;;;;;;3.88;1.05;;;;;;;;;;5010367;28;20029;-77
2023/01/08 09:04:57;;;;;;;10.50;0.98;;;;;;;;;;4992585;28;20036;-77
2023/01/08 09:07:22;;;;;;;8.52;0.90;;;;;;;;;;5009325;28;20442;-77
2023/01/08 09:09:47;;;;;;;11.20;1.85;;;;;;;;;;4997339;28;20030;-77
2023/01/08 09:12:13;;;;;;;4.03;1.08;;;;;;;;;;5005899;28;20028;-77
2023/01/08 09:14:38;;;;;;;4.82;0.80;;;;;;;;;;4998033;28;20385;-77
2023/01/08 09:17:03;;;;;;;8.15;1.02;;;;;;;;;;5002702;28;20034;-77
2023/01/08 09:19:28;;;;;;;5.32;0.93;;;;;;;;;;5001406;28;20461;-77
2023/01/08 09:21:53;;;;;;;4.75;1.00;;;;;;;;;;4996825;28;20072;-77
2023/01/08 09:24:19;;;;;;;4.47;0.95;;;;;;;;;;5014277;28;20018;-77
2023/01/08 09:26:44;;;;;;;5.38;0.60;;;;;;;;;;4997123;28;20025;-77
2023/01/08 09:29:09;;;;;;;2.70;0.60;;;;;;;;;;5014166;28;20160;-77
2023/01/08 09:31:34;;;;;;;4.55;0.70;;;;;;;;;;5013789;28;20030;-76
2023/01/08 09:33:59;;;;;;;3.65;0.50;;;;;;;;;;4996663;28;20479;-77
2023/01/08 09:36:25;;;;;;;4.75;1.00;;;;;;;;;;5014424;28;20083;-77
2023/01/08 09:38:50;;;;;;;1.00;0.57;;;;;;;;;;4996872;28;20068;-76
2023/01/08 09:41:23;;;;;;;5.85;0.70;;;;;;;;;;5014452;28;20029;-76
2023/01/08 09:43:50;;;;;;;1.75;0.55;;;;;;;;;;5013999;28;20088;-77
2023/01/08 09:46:17;;;;;;;2.47;0.65;;;;;;;;;;5011762;28;20036;-76
2023/01/08 09:48:43;;;;;;;1.95;0.50;;;;;;;;;;4995947;28;20026;-76
2023/01/08 09:51:11;;;;;;;3.25;0.80;;;;;;;;;;5013825;28;20125;-76
2023/01/08 09:53:36;;;;;;;1.83;0.50;;;;;;;;;;5014055;28;20504;-76
2023/01/08 09:56:03;;;;;;;0.95;0.30;;;;;;;;;;5014503;28;20046;-77
2023/01/08 09:58:31;;;;;;;0.65;0.20;;;;;;;;;;5013960;28;20105;-76
2023/01/08 10:00:58;;;;;;;4.05;0.38;;;;;;;;;;5014017;28;20017;-77
2023/01/08 10:03:27;;;;;;;0.98;0.30;;;;;;;;;;5013949;28;20120;-76
2023/01/08 10:05:53;;;;;;;1.60;0.47;;;;;;;;;;4995606;28;20500;-76
2023/01/08 10:08:18;;;;;;;1.15;0.40;;;;;;;;;;5013449;28;20030;-77
2023/01/08 10:10:44;;;;;;;1.13;0.30;;;;;;;;;;5013831;28;20014;-77
2023/01/08 10:13:10;;;;;;;0.70;0.40;;;;;;;;;;4993887;28;20504;-76
2023/01/08 10:15:35;;;;;;;1.20;0.50;;;;;;;;;;5013460;28;20053;-76
2023/01/08 10:18:05;;;;;;;0.95;0.40;;;;;;;;;;4996010;28;20325;-76
2023/01/08 10:20:31;;;;;;;1.00;0.40;;;;;;;;;;4995886;28;20033;-76
2023/01/08 10:23:07;;;;;;;0.47;0.20;;;;;;;;;;5011210;28;20515;-77
2023/01/08 10:25:32;;;;;;;0.85;0.28;;;;;;;;;;4996021;28;20030;-76
2023/01/08 10:27:58;;;;;;;0.88;0.45;;;;;;;;;;5013008;28;20028;-76
2023/01/08 10:30:29;;;;;;;1.73;0.60;;;;;;;;;;4994901;28;20525;-76
2023/01/08 10:32:56;;;;;;;0.43;0.43;;;;;;;;;;4995059;28;20128;-76
2023/01/08 10:35:23;;;;;;;0.32;0.25;;;;;;;;;;4995430;28;20037;-76
2023/01/08 10:37:49;;;;;;;2.15;0.45;;;;;;;;;;5012859;28;20050;-76
2023/01/08 10:40:17;;;;;;;1.02;0.43;;;;;;;;;;4994139;28;20048;-76
2023/01/08 10:42:42;;;;;;;1.10;0.57;;;;;;;;;;5012914;28;20032;-75
2023/01/08 10:45:17;;;;;;;3.10;0.50;;;;;;;;;;5010521;28;20022;-76
2023/01/08 10:47:44;;;;;;;3.92;0.80;;;;;;;;;;4995296;28;20033;-76
2023/01/08 10:50:17;;;;;;;2.10;0.90;;;;;;;;;;5012833;28;20022;-76
2023/01/08 10:52:50;;;;;;;3.35;0.90;;;;;;;;;;5012933;28;20022;-76
2023/01/08 10:55:24;;;;;;;1.63;0.63;;;;;;;;;;4995022;28;20030;-76
2023/01/08 10:58:03;;;;;;;3.92;0.75;;;;;;;;;;5012055;28;20112;-76
2023/01/08 11:00:29;;;;;;;2.85;0.63;;;;;;;;;;4982783;28;20025;-76
2023/01/08 11:02:55;;;;;;;3.45;0.73;;;;;;;;;;4995165;28;20040;-76
2023/01/08 11:05:28;;;;;;;10.55;3.05;;;;;;;;;;4994813;28;20116;-75
2023/01/08 11:07:58;;;;;;;6.18;0.70;;;;;;;;;;5012424;28;20033;-76
2023/01/08 11:10:24;;;;;;;4.25;0.88;;;;;;;;;;4994690;28;20033;-76
2023/01/08 11:12:54;;;;;;;4.15;1.08;;;;;;;;;;5012483;28;20041;-76
2023/01/08 11:15:39;;;;;;;5.07;0.90;;;;;;;;;;5011703;28;20298;-76
2023/01/08 11:18:24;;;;;;;7.70;2.97;;;;;;;;;;5000846;28;20029;-76
2023/01/08 11:20:51;;;;;;;1.52;0.70;;;;;;;;;;5011358;28;20389;-76
2023/01/08 11:23:23;;;;;;;5.88;0.93;;;;;;;;;;5012385;28;20049;-76
2023/01/08 11:25:51;;;;;;;4.07;0.82;;;;;;;;;;5011987;28;20022;-76
2023/01/08 11:28:22;;;;;;;4.75;0.80;;;;;;;;;;4994142;28;20112;-76
2023/01/08 11:30:52;;;;;;;3.47;1.00;;;;;;;;;;5012268;28;20022;-76
2023/01/08 11:33:19;;;;;;;3.60;0.80;;;;;;;;;;4994208;28;20057;-76
2023/01/08 11:35:47;;;;;;;4.45;0.90;;;;;;;;;;5011620;28;20025;-76
2023/01/08 11:38:12;;;;;;;3.20;0.73;;;;;;;;;;5011914;28;20572;-76
2023/01/08 11:40:46;;;;;;;3.92;0.70;;;;;;;;;;5012293;28;20037;-76
2023/01/08 11:43:30;;;;;;;6.35;0.80;;;;;;;;;;4994082;28;20083;-76
2023/01/08 11:46:04;;;;;;;4.97;0.80;;;;;;;;;;5009553;28;20501;-76
2023/01/08 11:48:32;;;;;;;3.72;0.90;;;;;;;;;;5011855;28;20025;-76
2023/01/08 11:51:00;;;;;;;3.65;0.60;;;;;;;;;;4993725;28;20457;-76
2023/01/08 11:53:33;;;;;;;3.60;0.75;;;;;;;;;;4994028;28;20485;-76
2023/01/08 11:56:06;;;;;;;2.45;0.80;;;;;;;;;;4994249;28;20021;-76
2023/01/08 11:58:41;;;;;;;7.70;0.80;;;;;;;;;;5011493;28;20522;-76
2023/01/08 12:01:06;;;;;;;6.45;1.08;;;;;;;;;;4994094;28;20042;-76
2023/01/08 12:03:41;;;;;;;2.65;0.80;;;;;;;;;;5011441;28;20022;-76
2023/01/08 12:06:09;;;;;;;3.42;0.80;;;;;;;;;;5011817;28;20029;-76
2023/01/08 12:08:53;;;;;;;2.30;0.73;;;;;;;;;;5009945;28;20084;-76
2023/01/08 12:11:21;;;;;;;3.60;0.63;;;;;;;;;;5000254;28;20018;-76
2023/01/08 12:13:52;;;;;;;5.13;1.23;;;;;;;;;;5011150;28;20045;-76
2023/01/08 12:16:36;;;;;;;5.75;1.00;;;;;;;;;;4993950;28;20026;-76
2023/01/08 12:19:19;;;;;;;7.97;0.90;;;;;;;;;;5011664;28;20022;-76
2023/01/08 12:21:52;;;;;;;5.35;0.70;;;;;;;;;;5011868;28;20105;-76
2023/01/08 12:24:21;;;;;;;4.75;0.80;;;;;;;;;;5010508;28;20034;-75
2023/01/08 12:26:49;;;;;;;6.53;1.08;;;;;;;;;;5011677;28;20168;-76
2023/01/08 12:29:17;;;;;;;5.80;1.13;;;;;;;;;;5011748;28;20041;-76
2023/01/08 12:31:51;;;;;;;2.85;0.80;;;;;;;;;;4994184;28;20025;-76
2023/01/08 12:34:35;;;;;;;4.40;0.98;;;;;;;;;;5011462;28;20025;-76
2023/01/08 12:37:06;;;;;;;8.52;1.00;;;;;;;;;;5011355;28;20025;-76
2023/01/08 12:39:36;;;;;;;4.75;0.95;;;;;;;;;;4993435;28;20421;-76
2023/01/08 12:42:09;;;;;;;4.38;1.08;;;;;;;;;;4993277;28;20484;-76
2023/01/08 12:44:35;;;;;;;6.05;1.10;;;;;;;;;;4992617;28;20101;-76
2023/01/08 12:47:01;;;;;;;5.57;1.38;;;;;;;;;;5013079;28;20036;-76
2023/01/08 12:49:36;;;;;;;5.68;1.08;;;;;;;;;;4997213;28;20108;-76
2023/01/08 12:52:07;;;;;;;4.55;0.90;;;;;;;;;;5015370;28;20080;-76
2023/01/08 12:54:49;;;;;;;3.03;0.80;;;;;;;;;;4997290;28;20057;-76
2023/01/08 12:57:33;;;;;;;10.43;1.10;;;;;;;;;;5015527;28;20081;-76
2023/01/08 13:00:04;;;;;;;3.17;0.93;;;;;;;;;;5014097;28;20026;-76
2023/01/08 13:02:35;;;;;;;5.63;1.90;;;;;;;;;;5015335;28;20018;-76
2023/01/08 13:05:27;;;;;;;3.08;0.90;;;;;;;;;;4997353;28;20248;-76
2023/01/08 13:07:54;;;;;;;6.35;0.95;;;;;;;;;;5014580;28;20076;-76
2023/01/08 13:10:19;;;;;;;8.75;0.90;;;;;;;;;;5014495;28;20113;-76
2023/01/08 13:12:48;;;;;;;7.50;0.75;;;;;;;;;;5015082;28;20045;-76
2023/01/08 13:15:21;;;;;;;3.40;0.80;;;;;;;;;;4997137;28;20029;-76
2023/01/08 13:17:46;;;;;;;;;;;;;;;;;;4996367;28;20032;-75
2023/01/08 13:20:18;;;;;;;3.10;0.90;;;;;;;;;;5013221;28;19905;-76
2023/01/08 13:22:50;;;;;;;9.32;0.90;;;;;;;;;;4997100;28;20259;-76
2023/01/08 13:25:18;;;;;;;9.10;0.85;;;;;;;;;;4997021;28;20465;-76
2023/01/08 13:27:44;;;;;;;2.40;0.80;;;;;;;;;;4996609;28;20029;-76
2023/01/08 13:30:28;;;;;;;4.63;1.25;;;;;;;;;;4996748;28;20013;-76
2023/01/08 13:32:53;;;;;;;5.25;1.30;;;;;;;;;;5014502;28;20014;-76
2023/01/08 13:35:21;;;;;;;6.65;1.50;;;;;;;;;;5013428;28;20022;-76
2023/01/08 13:38:10;;;;;;;2.78;0.90;;;;;;;;;;4996679;28;20044;-76
2023/01/08 13:40:36;;;;;;;5.22;0.70;;;;;;;;;;5014348;28;20033;-76
2023/01/08 13:43:03;;;;;;;4.32;0.60;;;;;;;;;;4996510;28;20018;-76
2023/01/08 13:45:29;;;;;;;4.57;0.90;;;;;;;;;;4994235;28;20480;-76
2023/01/08 13:47:55;;;;;;;2.58;0.77;;;;;;;;;;5013975;28;20030;-76
2023/01/08 13:50:24;;;;;;;6.72;1.20;;;;;;;;;;4995561;28;20056;-76
2023/01/08 13:52:56;;;;;;;3.78;0.88;;;;;;;;;;5013812;28;20010;-76
2023/01/08 13:55:30;;;;;;;6.80;1.00;;;;;;;;;;4996101;28;20025;-76
2023/01/08 13:57:57;;;;;;;4.88;1.02;;;;;;;;;;5013463;28;20155;-76
2023/01/08 14:00:41;;;;;;;6.97;1.17;;;;;;;;;;5014001;28;20022;-77
2023/01/08 14:03:22;;;;;;;3.88;1.15;;;;;;;;;;5013621;28;20068;-76
2023/01/08 14:05:47;;;;;;;4.97;1.00;;;;;;;;;;4994941;28;20068;-76
2023/01/08 14:08:22;;;;;;;5.75;1.10;;;;;;;;;;5011889;28;20037;-76
2023/01/08 14:10:48;;;;;;;5.40;0.77;;;;;;;;;;4996177;28;20021;-76
2023/01/08 14:13:15;;;;;;;5.07;0.90;;;;;;;;;;4996111;28;20026;-76
2023/01/08 14:15:40;;;;;;;4.72;0.80;;;;;;;;;;5014124;28;20026;-76
2023/01/08 14:18:05;;;;;;;7.63;1.40;;;;;;;;;;4995789;28;20022;-76
2023/01/08 14:20:30;;;;;;;4.50;1.00;;;;;;;;;;4995473;28;20037;-76
2023/01/08 14:22:56;;;;;;;3.58;0.90;;;;;;;;;;5012656;28;20109;-76
2023/01/08 14:25:21;;;;;;;6.65;0.90;;;;;;;;;;4995906;28;20018;-76
2023/01/08 14:27:53;;;;;;;6.85;0.73;;;;;;;;;;4995704;28;20022;-76
2023/01/08 14:30:19;;;;;;;7.88;0.73;;;;;;;;;;5013643;28;20022;-76
2023/01/08 14:32:45;;;;;;;4.90;1.08;;;;;;;;;;5013451;28;20018;-76
2023/01/08 14:35:13;;;;;;;6.65;0.65;;;;;;;;;;4995583;28;20014;-77
2023/01/08 14:37:38;;;;;;;4.07;1.00;;;;;;;;;;5013489;28;20026;-76
2023/01/08 14:40:12;;;;;;;4.60;1.20;;;;;;;;;;4995038;28;20030;-76
2023/01/08 14:42:45;;;;;;;4.05;1.17;;;;;;;;;;4995395;28;20666;-76
2023/01/08 14:45:15;;;;;;;3.70;1.13;;;;;;;;;;4992955;28;20456;-76